Cuttingsville, Vermont
Current Conditions -  °F | °C
As of 11:35 AM on Friday 21 Nov 2014 (Local Time) from KRUT Reporting Station
Overcast Overcast  
Wind Chill: -8°   Ceiling: 3500
Heat Index: -3°   Visibility: 10mi
Dew Point: -12°   Wind: 10mph
Humidity: 51%   Direction: 290°WNW
Pressure: 30.13"   Gusts: 16mph
Location:  43.49°N, 72.88°W
Report Text: KRUT 211635Z 29009G14KT 10SM BKN035 BKN045 OVC050 M03/M12 A3013 RMK AO1
Loading
Personal Weather Stations






























Interactive Weather Map New forecast layout! Learn more

10-Day Weather Forecast

Advertisements
Track Severe Weather on mobile